METAR AND TAF INFORMATION
METAR FOR KETB
ADDS - METARS form results

(0722 UTC 19 December 2018)
Data provider http://aviationweather.gov/metar/data/
 
METAR text: KETB 190715Z AUTO 23007KT 10SM CLR 01/M02 A2991 RMK AO2
Conditions at: KETB (WEST BEND , WI, US) observed 0715 UTC 19 December 2018
Temperature: 1.0°C (34°F)
Dewpoint: -2.0°C (28°F) [RH = 80%]
Pressure (altimeter): 29.91 inches Hg (1013.0 mb)
Winds: from the SW (230 degrees) at 8 MPH (7 knots; 3.6 m/s)
Visibility: 10 or more miles (16+ km)
Ceiling: at least 12,000 feet AGL
Clouds: sky clear below 12,000 feet AGL
Weather: automated observation with no human augmentation;
there may or may not be significant weather present at this time

METAR text: KETB 190655Z AUTO 24006KT 10SM CLR 01/M03 A2991 RMK AO2
Conditions at: KETB (WEST BEND , WI, US) observed 0655 UTC 19 December 2018
Temperature: 1.0°C (34°F)
Dewpoint: -3.0°C (27°F) [RH = 75%]
Pressure (altimeter): 29.91 inches Hg (1013.0 mb)
Winds: from the WSW (240 degrees) at 7 MPH (6 knots; 3.1 m/s)
Visibility: 10 or more miles (16+ km)
Ceiling: at least 12,000 feet AGL
Clouds: sky clear below 12,000 feet AGL
Weather: automated observation with no human augmentation;
there may or may not be significant weather present at this time

METAR text: KETB 190635Z AUTO 21009KT 10SM CLR 01/M02 A2990 RMK AO2
Conditions at: KETB (WEST BEND , WI, US) observed 0635 UTC 19 December 2018
Temperature: 1.0°C (34°F)
Dewpoint: -2.0°C (28°F) [RH = 80%]
Pressure (altimeter): 29.90 inches Hg (1012.6 mb)
Winds: from the SSW (210 degrees) at 10 MPH (9 knots; 4.6 m/s)
Visibility: 10 or more miles (16+ km)
Ceiling: at least 12,000 feet AGL
Clouds: sky clear below 12,000 feet AGL
Weather: automated observation with no human augmentation;
there may or may not be significant weather present at this time

 AIRPORT MAP

Esri Leaflet Quickstart
 RUNWAY INFORMATION
Runway 06 Runway length 3897 ft Runway width 75 ft
Runway elevation 886 ft Runway displaced threshold 0 ft Runway heading 59
Runway 24 Runway length 3897 ft Runway width 75 ft
Runway elevation 874 ft Runway displaced threshold 0 ft Runway heading 239
Runway 13 Runway length 4494 ft Runway width 75 ft
Runway elevation 882 ft Runway displaced threshold 0 ft Runway heading 127
Runway 31 Runway length 4494 ft Runway width 75 ft
Runway elevation 868 ft Runway displaced threshold 0 ft Runway heading 307

 AIRPORT FREQUENCIES
Type A/D Name MILWAUKEE Frequency 125.35 MHZ
Type AWOS Name AWOS 3 Frequency 120 MHZ
Type CLD Name CLNC DEL Frequency 124.75 MHZ
Type OPS Name ARNG OPS Frequency 40.9 MHZ
Type RDO Name GREEN BAY Frequency 109.8 MHZ
Type UNIC Name CTAF/UNICO Frequency 122.8 MHZ

 AIRPORT NEAR NAVIGATION AIDS



Powered by Virtual Airlines Manager [v2.6.2]